createdAt,value
2019-03-24T00:00:05.140Z,43.06
2019-03-24T00:01:05.214Z,43.06
2019-03-24T00:02:05.149Z,43.06
2019-03-24T00:03:05.197Z,43.06
2019-03-24T00:04:05.207Z,43.06
2019-03-24T00:05:05.224Z,43.05
2019-03-24T00:06:05.136Z,43.08
2019-03-24T00:07:04.944Z,43.08
2019-03-24T00:08:05.159Z,43.06
2019-03-24T00:09:05.141Z,43.08
2019-03-24T00:10:05.274Z,43.07
2019-03-24T00:11:05.297Z,43.07
2019-03-24T00:12:05.193Z,43.09
2019-03-24T00:13:05.076Z,43.07
2019-03-24T00:14:04.936Z,43.05
2019-03-24T00:15:05.012Z,43.01
2019-03-24T00:16:04.988Z,43.07
2019-03-24T00:17:05.140Z,43.02
2019-03-24T00:18:04.987Z,43.01
2019-03-24T00:19:05.187Z,43.03
2019-03-24T00:20:05.046Z,43.08
2019-03-24T00:21:05.064Z,43.08
2019-03-24T00:22:05.145Z,43.07
2019-03-24T00:23:05.052Z,43.09
2019-03-24T00:24:05.127Z,43.06
2019-03-24T00:25:05.243Z,43.1
2019-03-24T00:26:05.141Z,43.04
2019-03-24T00:27:05.216Z,43.04
2019-03-24T00:28:05.355Z,43.02
2019-03-24T00:29:05.106Z,43.09
2019-03-24T00:30:04.964Z,43.05
2019-03-24T00:31:05.117Z,43.03
2019-03-24T00:32:04.994Z,43.03
2019-03-24T00:33:05.018Z,43.03
2019-03-24T00:34:05.036Z,43.03
2019-03-24T00:35:05.114Z,43.04
2019-03-24T00:36:05.059Z,43.09
2019-03-24T00:37:05.073Z,43.05
2019-03-24T00:38:05.191Z,43.05
2019-03-24T00:39:05.111Z,43.05
2019-03-24T00:40:05.154Z,43.06
2019-03-24T00:41:05.125Z,43.07
2019-03-24T00:42:05.134Z,43.05
2019-03-24T00:43:05.245Z,43.08
2019-03-24T00:44:05.202Z,43.06
2019-03-24T00:45:05.150Z,43.04
2019-03-24T00:46:04.965Z,43.01
2019-03-24T00:47:04.975Z,43.05
2019-03-24T00:48:04.935Z,43.05
2019-03-24T00:49:04.963Z,43.06
2019-03-24T00:50:05.211Z,43.03
2019-03-24T00:51:04.986Z,43.04
2019-03-24T00:52:05.001Z,43.03
2019-03-24T00:53:05.021Z,42.97
2019-03-24T00:54:05.014Z,43.03
2019-03-24T00:55:05.228Z,43.07
2019-03-24T00:56:05.095Z,43.01
2019-03-24T00:57:05.177Z,43.01
2019-03-24T00:58:05.085Z,43
2019-03-24T00:59:05.122Z,42.98
2019-03-24T01:00:05.155Z,43.04
2019-03-24T01:01:05.093Z,43
2019-03-24T01:02:05.142Z,43.06
2019-03-24T01:03:05.059Z,43.01
2019-03-24T01:04:05.045Z,43.06
2019-03-24T01:05:05.064Z,43.03
2019-03-24T01:06:04.973Z,43.05
2019-03-24T01:07:05.001Z,43.03
2019-03-24T01:08:05.009Z,43.01
2019-03-24T01:09:05.083Z,43.02
2019-03-24T01:10:05.053Z,42.97
2019-03-24T01:11:05.077Z,43.02
2019-03-24T01:12:05.066Z,43.04
2019-03-24T01:13:05.173Z,43.04
2019-03-24T01:14:05.083Z,43.02
2019-03-24T01:15:05.182Z,43.03
2019-03-24T01:16:05.221Z,43.03
2019-03-24T01:17:05.123Z,43
2019-03-24T01:18:05.176Z,43.03
2019-03-24T01:19:05.243Z,43
2019-03-24T01:20:05.228Z,42.97
2019-03-24T01:21:04.914Z,43.02
2019-03-24T01:22:05.055Z,43.03
2019-03-24T01:23:04.936Z,43
2019-03-24T01:24:04.931Z,43.03
2019-03-24T01:25:05.012Z,42.99
2019-03-24T01:26:04.985Z,43.02
2019-03-24T01:27:05.099Z,42.99
2019-03-24T01:28:05.065Z,42.99
2019-03-24T01:29:05.157Z,43
2019-03-24T01:30:05.111Z,43
2019-03-24T01:31:05.025Z,42.98
2019-03-24T01:32:05.138Z,43
2019-03-24T01:33:05.225Z,43.01
2019-03-24T01:34:05.404Z,42.96
2019-03-24T01:35:05.095Z,43.03
2019-03-24T01:36:05.219Z,43.03
2019-03-24T01:37:05.157Z,42.95
2019-03-24T01:38:05.159Z,43
2019-03-24T01:39:04.992Z,43
2019-03-24T01:40:04.928Z,43.05
2019-03-24T01:41:04.966Z,43.01
2019-03-24T01:42:04.950Z,43.01
2019-03-24T01:43:05.027Z,43.02
2019-03-24T01:44:04.969Z,43.01
2019-03-24T01:45:04.998Z,43.06
2019-03-24T01:46:05.007Z,43.02
2019-03-24T01:47:05.027Z,43.01
2019-03-24T01:48:05.128Z,43
2019-03-24T01:49:05.172Z,43.03
2019-03-24T01:50:05.206Z,42.99
2019-03-24T01:51:05.118Z,43.03
2019-03-24T01:52:05.102Z,43.03
2019-03-24T01:53:05.237Z,43.02
2019-03-24T01:54:05.151Z,43
2019-03-24T01:55:05.174Z,43.02
2019-03-24T01:56:05.362Z,43
2019-03-24T01:57:04.903Z,42.97
2019-03-24T01:58:04.880Z,43.01
2019-03-24T01:59:04.916Z,43
2019-03-24T02:00:04.990Z,43.03
2019-03-24T02:01:04.993Z,43.02
2019-03-24T02:02:04.943Z,42.98
2019-03-24T02:03:04.965Z,43.02
2019-03-24T02:04:04.958Z,42.99
2019-03-24T02:05:05.010Z,43
2019-03-24T02:06:05.202Z,43.02
2019-03-24T02:07:05.106Z,43.03
2019-03-24T02:08:05.124Z,43.02
2019-03-24T02:09:05.047Z,43.01
2019-03-24T02:10:05.057Z,43.02
2019-03-24T02:11:05.084Z,42.99
2019-03-24T02:12:05.110Z,42.99
2019-03-24T02:13:05.115Z,42.94
2019-03-24T02:14:05.092Z,42.99
2019-03-24T02:15:05.165Z,43
2019-03-24T02:16:10.109Z,42.98
2019-03-24T02:17:05.026Z,42.99
2019-03-24T02:18:04.958Z,42.97
2019-03-24T02:19:04.988Z,42.98
2019-03-24T02:20:04.995Z,42.96
2019-03-24T02:21:04.985Z,42.94
2019-03-24T02:22:04.972Z,42.98
2019-03-24T02:23:05.063Z,42.95
2019-03-24T02:24:05.044Z,42.94
2019-03-24T02:25:05.024Z,42.95
2019-03-24T02:26:05.056Z,42.98
2019-03-24T02:27:05.207Z,43
2019-03-24T02:28:05.132Z,42.97
2019-03-24T02:29:05.075Z,42.93
2019-03-24T02:30:05.166Z,42.93
2019-03-24T02:31:05.197Z,42.92
2019-03-24T02:32:05.146Z,42.93
2019-03-24T02:33:05.227Z,42.95
2019-03-24T02:34:05.001Z,43
2019-03-24T02:35:04.904Z,43.01
2019-03-24T02:36:04.956Z,42.96
2019-03-24T02:37:05.032Z,43
2019-03-24T02:38:05.044Z,42.99
2019-03-24T02:39:05.012Z,42.98
2019-03-24T02:40:04.996Z,43
2019-03-24T02:41:05.076Z,42.96
2019-03-24T02:42:05.035Z,42.97
2019-03-24T02:43:05.008Z,43
2019-03-24T02:44:05.033Z,42.94
2019-03-24T02:45:05.142Z,42.98
2019-03-24T02:46:05.210Z,42.96
2019-03-24T02:47:05.272Z,42.98
2019-03-24T02:48:05.269Z,42.95
2019-03-24T02:49:05.076Z,42.93
2019-03-24T02:50:05.175Z,42.96
2019-03-24T02:51:05.235Z,42.94
2019-03-24T02:52:04.936Z,42.97
2019-03-24T02:53:04.858Z,42.96
2019-03-24T02:54:04.988Z,42.94
2019-03-24T02:55:05.009Z,42.91
2019-03-24T02:56:04.983Z,42.94
2019-03-24T02:57:04.968Z,42.93
2019-03-24T02:58:05.054Z,42.93
2019-03-24T02:59:05.043Z,42.91
2019-03-24T03:00:05.474Z,42.94
2019-03-24T03:01:05.365Z,42.96
2019-03-24T03:02:05.057Z,42.89
2019-03-24T03:03:05.088Z,42.91
2019-03-24T03:04:05.282Z,42.94
2019-03-24T03:05:04.909Z,42.94
2019-03-24T03:06:05.110Z,42.94
2019-03-24T03:07:05.293Z,42.96
2019-03-24T03:08:05.246Z,42.93
2019-03-24T03:09:05.205Z,42.95
2019-03-24T03:10:05.214Z,42.96
2019-03-24T03:11:04.881Z,42.92
2019-03-24T03:12:05.109Z,42.93
2019-03-24T03:13:04.936Z,42.92
2019-03-24T03:14:05.062Z,42.94
2019-03-24T03:15:04.991Z,42.96
2019-03-24T03:16:04.952Z,42.94
2019-03-24T03:17:04.966Z,42.91
2019-03-24T03:18:05.005Z,42.91
2019-03-24T03:19:05.155Z,42.92
2019-03-24T03:20:05.016Z,42.92
2019-03-24T03:21:05.150Z,42.96
2019-03-24T03:22:05.402Z,42.89
2019-03-24T03:23:05.129Z,42.92
2019-03-24T03:24:05.029Z,42.89
2019-03-24T03:25:05.102Z,42.91
2019-03-24T03:26:05.091Z,42.91
2019-03-24T03:27:05.179Z,42.91
2019-03-24T03:28:05.149Z,42.91
2019-03-24T03:29:05.036Z,42.91
2019-03-24T03:30:05.240Z,42.89
2019-03-24T03:31:05.044Z,42.91
2019-03-24T03:32:04.976Z,42.88
2019-03-24T03:33:05.337Z,42.89
2019-03-24T03:34:05.079Z,42.91
2019-03-24T03:35:05.215Z,42.88
2019-03-24T03:36:05.148Z,42.88
2019-03-24T03:37:05.218Z,42.85
2019-03-24T03:38:05.050Z,42.9
2019-03-24T03:39:05.219Z,42.89
2019-03-24T03:40:05.471Z,42.9
2019-03-24T03:41:05.189Z,42.9
2019-03-24T03:42:05.478Z,42.85
2019-03-24T03:43:05.145Z,42.89
2019-03-24T03:44:05.971Z,42.88
2019-03-24T03:45:05.224Z,42.9
2019-03-24T03:46:05.137Z,42.89
2019-03-24T03:47:05.259Z,42.9
2019-03-24T03:48:05.155Z,42.9
2019-03-24T03:49:04.893Z,42.88
2019-03-24T03:50:04.913Z,42.88
2019-03-24T03:51:05.047Z,42.88
2019-03-24T03:52:04.989Z,42.94
2019-03-24T03:53:04.963Z,42.9
2019-03-24T03:54:04.972Z,42.91
2019-03-24T03:55:05.674Z,42.89
2019-03-24T03:56:05.066Z,42.85
2019-03-24T03:57:05.007Z,42.89
2019-03-24T03:58:05.032Z,42.84
2019-03-24T03:59:05.192Z,42.91
2019-03-24T04:00:05.063Z,42.9
2019-03-24T04:01:05.096Z,42.9
2019-03-24T04:02:05.265Z,42.86
2019-03-24T04:03:05.300Z,42.84
2019-03-24T04:04:05.404Z,42.85
2019-03-24T04:05:05.434Z,42.89
2019-03-24T04:06:05.120Z,42.85
2019-03-24T04:07:05.259Z,42.9
2019-03-24T04:08:04.907Z,42.83
2019-03-24T04:09:04.941Z,42.86
2019-03-24T04:10:04.883Z,42.86
2019-03-24T04:11:04.948Z,42.88
2019-03-24T04:12:04.946Z,42.86
2019-03-24T04:13:05.013Z,42.84
2019-03-24T04:14:05.110Z,42.86
2019-03-24T04:15:05.021Z,42.92
2019-03-24T04:16:05.071Z,42.84
2019-03-24T04:17:08.761Z,42.88
2019-03-24T04:18:05.046Z,42.86
2019-03-24T04:19:05.068Z,42.83
2019-03-24T04:20:05.055Z,42.86
2019-03-24T04:21:05.140Z,42.87
2019-03-24T04:22:05.105Z,42.79
2019-03-24T04:23:05.285Z,42.85
2019-03-24T04:24:05.116Z,42.84
2019-03-24T04:25:05.094Z,42.82
2019-03-24T04:26:05.477Z,42.84
2019-03-24T04:27:05.145Z,42.81
2019-03-24T04:28:04.937Z,42.8
2019-03-24T04:29:04.865Z,42.79
2019-03-24T04:30:05.155Z,42.82
2019-03-24T04:31:04.983Z,42.78
2019-03-24T04:32:04.988Z,42.84
2019-03-24T04:33:04.891Z,42.83
2019-03-24T04:34:04.921Z,42.86
2019-03-24T04:35:04.998Z,42.84
2019-03-24T04:36:04.972Z,42.81
2019-03-24T04:37:05.030Z,42.79
2019-03-24T04:38:05.039Z,42.8
2019-03-24T04:39:05.142Z,42.8
2019-03-24T04:40:05.298Z,42.79
2019-03-24T04:41:05.147Z,42.76
2019-03-24T04:42:05.041Z,42.8
2019-03-24T04:43:05.053Z,42.75
2019-03-24T04:44:05.179Z,42.72
2019-03-24T04:45:05.092Z,42.69
2019-03-24T04:46:05.069Z,42.67
2019-03-24T04:47:04.914Z,42.64
2019-03-24T04:48:05.302Z,42.64
2019-03-24T04:49:04.856Z,42.62
2019-03-24T04:50:04.957Z,42.62
2019-03-24T04:51:04.972Z,42.64
2019-03-24T04:52:04.946Z,42.55
2019-03-24T04:53:05.034Z,42.63
2019-03-24T04:54:05.013Z,42.58
2019-03-24T04:55:04.979Z,42.56
2019-03-24T04:56:05.075Z,42.56
2019-03-24T04:57:05.072Z,42.52
2019-03-24T04:58:05.025Z,42.48
2019-03-24T04:59:05.035Z,42.54
2019-03-24T05:00:05.081Z,42.49
2019-03-24T05:01:05.026Z,42.44
2019-03-24T05:02:05.216Z,42.42
2019-03-24T05:03:05.128Z,42.37
2019-03-24T05:04:05.165Z,42.37
2019-03-24T05:05:04.850Z,42.39
2019-03-24T05:06:04.893Z,42.36
2019-03-24T05:07:04.896Z,42.36
2019-03-24T05:08:04.922Z,42.38
2019-03-24T05:09:05.043Z,42.39
2019-03-24T05:10:04.886Z,42.32
2019-03-24T05:11:04.935Z,42.31
2019-03-24T05:12:05.078Z,42.38
2019-03-24T05:13:04.909Z,42.31
2019-03-24T05:14:05.037Z,42.42
2019-03-24T05:15:04.947Z,42.35
2019-03-24T05:16:04.957Z,42.41
2019-03-24T05:17:05.128Z,42.41
2019-03-24T05:18:05.082Z,42.39
2019-03-24T05:19:04.988Z,42.32
2019-03-24T05:20:05.004Z,42.4
2019-03-24T05:21:05.044Z,42.42
2019-03-24T05:22:05.137Z,42.43
2019-03-24T05:23:04.889Z,42.42
2019-03-24T05:24:04.929Z,42.45
2019-03-24T05:25:04.877Z,42.42
2019-03-24T05:26:04.945Z,42.44
2019-03-24T05:27:05.012Z,42.41
2019-03-24T05:28:05.006Z,42.39
2019-03-24T05:29:04.989Z,42.44
2019-03-24T05:30:05.356Z,42.42
2019-03-24T05:31:05.466Z,42.42
2019-03-24T05:32:04.971Z,42.45
2019-03-24T05:33:04.989Z,42.37
2019-03-24T05:34:05.046Z,42.46
2019-03-24T05:35:06.047Z,42.38
2019-03-24T05:36:05.089Z,42.45
2019-03-24T05:37:05.069Z,42.44
2019-03-24T05:38:05.060Z,42.44
2019-03-24T05:39:05.159Z,42.42
2019-03-24T05:40:05.169Z,42.39
2019-03-24T05:41:04.858Z,42.34
2019-03-24T05:42:04.910Z,42.38
2019-03-24T05:43:04.817Z,42.39
2019-03-24T05:44:04.935Z,42.45
2019-03-24T05:45:04.977Z,42.38
2019-03-24T05:46:04.879Z,42.37
2019-03-24T05:47:04.874Z,42.35
2019-03-24T05:48:04.931Z,42.4
2019-03-24T05:49:04.937Z,42.41
2019-03-24T05:50:05.032Z,42.32
2019-03-24T05:51:04.981Z,42.32
2019-03-24T05:52:05.089Z,42.33
2019-03-24T05:53:04.988Z,42.36
2019-03-24T05:54:05.096Z,42.29
2019-03-24T05:55:05.147Z,42.32
2019-03-24T05:56:05.027Z,42.28
2019-03-24T05:57:05.054Z,42.3
2019-03-24T05:58:04.942Z,42.23
2019-03-24T05:59:04.938Z,42.26
2019-03-24T06:00:04.962Z,42.26
2019-03-24T06:01:04.955Z,42.22
2019-03-24T06:02:04.982Z,42.25
2019-03-24T06:03:04.907Z,42.26
2019-03-24T06:04:04.913Z,42.22
2019-03-24T06:05:04.933Z,42.25
2019-03-24T06:06:04.968Z,42.23
2019-03-24T06:07:04.979Z,42.26
2019-03-24T06:08:04.953Z,42.26
2019-03-24T06:09:04.990Z,42.21
2019-03-24T06:10:05.047Z,42.24
2019-03-24T06:11:04.988Z,42.26
2019-03-24T06:12:05.135Z,42.2
2019-03-24T06:13:05.118Z,42.17
2019-03-24T06:14:05.038Z,42.14
2019-03-24T06:15:05.079Z,42.17
2019-03-24T06:16:05.128Z,42.17
2019-03-24T06:17:04.923Z,42.2
2019-03-24T06:18:04.875Z,42.16
2019-03-24T06:19:04.843Z,42.17
2019-03-24T06:20:04.823Z,42.16
2019-03-24T06:21:04.977Z,42.14
2019-03-24T06:22:04.921Z,42.17
2019-03-24T06:23:04.932Z,42.16
2019-03-24T06:24:04.904Z,42.14
2019-03-24T06:25:04.963Z,42.13
2019-03-24T06:26:05.125Z,42.13
2019-03-24T06:27:05.030Z,42.13
2019-03-24T06:28:05.033Z,42.14
2019-03-24T06:29:04.976Z,42.14
2019-03-24T06:30:05.000Z,42.1
2019-03-24T06:31:05.072Z,42.13
2019-03-24T06:32:04.989Z,42.15
2019-03-24T06:33:05.215Z,42.1
2019-03-24T06:34:05.033Z,42.12
2019-03-24T06:35:05.326Z,42.09
2019-03-24T06:36:05.318Z,42.1
2019-03-24T06:37:04.877Z,42.09
2019-03-24T06:38:04.912Z,42.11
2019-03-24T06:39:04.912Z,42.09
2019-03-24T06:40:04.880Z,42.06
2019-03-24T06:41:04.960Z,42.09
2019-03-24T06:42:04.909Z,42.13
2019-03-24T06:43:04.933Z,42.1
2019-03-24T06:44:05.016Z,42.1
2019-03-24T06:45:05.024Z,42.12
2019-03-24T06:46:05.009Z,42.1
2019-03-24T06:47:05.002Z,42.1
2019-03-24T06:48:05.017Z,42.14
2019-03-24T06:49:05.064Z,42.16
2019-03-24T06:50:05.379Z,42.11
2019-03-24T06:51:05.080Z,42.11
2019-03-24T06:52:04.943Z,42.11
2019-03-24T06:53:04.826Z,42.08
2019-03-24T06:54:04.979Z,42.14
2019-03-24T06:55:04.819Z,42.03
2019-03-24T06:56:04.786Z,42.07
2019-03-24T06:57:04.960Z,42.12
2019-03-24T06:58:04.853Z,42.11
2019-03-24T06:59:04.891Z,42.1
2019-03-24T07:00:04.893Z,42.15
2019-03-24T07:01:04.906Z,42.09
2019-03-24T07:02:04.937Z,42.06
2019-03-24T07:03:05.182Z,42.1
2019-03-24T07:04:05.020Z,42.07
2019-03-24T07:05:04.983Z,42.1
2019-03-24T07:06:05.239Z,42.04
2019-03-24T07:07:04.970Z,42.08
2019-03-24T07:08:05.206Z,42.08
2019-03-24T07:09:05.196Z,42.1
2019-03-24T07:10:04.832Z,42.04
2019-03-24T07:11:14.234Z,42.12
2019-03-24T07:12:04.874Z,42.06
2019-03-24T07:13:04.859Z,42.04
2019-03-24T07:14:04.945Z,42.03
2019-03-24T07:15:04.897Z,42.07
2019-03-24T07:16:04.920Z,42.06
2019-03-24T07:17:04.929Z,42.1
2019-03-24T07:18:09.233Z,42.07
2019-03-24T07:19:04.925Z,42.08
2019-03-24T07:20:05.019Z,42.11
2019-03-24T07:21:04.986Z,42.04
2019-03-24T07:22:07.573Z,42.06
2019-03-24T07:23:04.993Z,42.07
2019-03-24T07:24:05.105Z,42.03
2019-03-24T07:25:05.035Z,42.07
2019-03-24T07:26:05.132Z,42.07
2019-03-24T07:27:04.777Z,42.08
2019-03-24T07:28:04.762Z,42
2019-03-24T07:29:04.814Z,42.03
2019-03-24T07:30:04.857Z,42.07
2019-03-24T07:31:04.849Z,42.04
2019-03-24T07:32:05.056Z,42.06
2019-03-24T07:33:04.856Z,42.02
2019-03-24T07:34:04.985Z,42
2019-03-24T07:35:04.905Z,42.03
2019-03-24T07:36:04.967Z,42.03
2019-03-24T07:37:04.931Z,42.08
2019-03-24T07:38:04.944Z,42
2019-03-24T07:39:04.961Z,42.06
2019-03-24T07:40:05.381Z,42.02
2019-03-24T07:41:05.044Z,42
2019-03-24T07:42:05.927Z,42.02
2019-03-24T07:43:04.990Z,42.03
2019-03-24T07:44:04.827Z,42.03
2019-03-24T07:45:04.874Z,42.03
2019-03-24T07:46:04.838Z,42.04
2019-03-24T07:47:04.866Z,42.04
2019-03-24T07:48:04.883Z,42.04
2019-03-24T07:49:04.854Z,42.02
2019-03-24T07:50:04.975Z,42
2019-03-24T07:51:04.942Z,41.97
2019-03-24T07:52:04.918Z,42.07
2019-03-24T07:53:04.950Z,42.03
2019-03-24T07:54:04.986Z,42.03
2019-03-24T07:55:04.929Z,42.03
2019-03-24T07:56:04.963Z,42.06
2019-03-24T07:57:05.033Z,42.03
2019-03-24T07:58:04.974Z,42.02
2019-03-24T07:59:04.983Z,42.06
2019-03-24T08:00:05.021Z,42.02
2019-03-24T08:01:04.931Z,42.07
2019-03-24T08:02:05.150Z,42
2019-03-24T08:03:04.854Z,42.03
2019-03-24T08:04:06.274Z,42.05
2019-03-24T08:05:04.829Z,42.04
2019-03-24T08:06:05.960Z,42.03
2019-03-24T08:07:04.962Z,41.99
2019-03-24T08:08:04.871Z,42.07
2019-03-24T08:09:04.998Z,42.02
2019-03-24T08:10:04.907Z,42.03
2019-03-24T08:11:05.211Z,42.02
2019-03-24T08:12:04.966Z,42.07
2019-03-24T08:13:04.953Z,42.03
2019-03-24T08:14:04.965Z,42.07
2019-03-24T08:15:04.967Z,42.04
2019-03-24T08:16:05.075Z,42.06
2019-03-24T08:17:05.009Z,42.01
2019-03-24T08:18:04.858Z,42.02
2019-03-24T08:19:04.876Z,42
2019-03-24T08:20:04.812Z,42.04
2019-03-24T08:21:04.830Z,42.01
2019-03-24T08:22:04.974Z,42.03
2019-03-24T08:23:05.278Z,42.01
2019-03-24T08:24:05.180Z,42.04
2019-03-24T08:25:04.891Z,42.01
2019-03-24T08:26:04.919Z,42.01
2019-03-24T08:27:05.103Z,42
2019-03-24T08:28:04.951Z,42
2019-03-24T08:29:04.968Z,41.98
2019-03-24T08:30:04.944Z,42
2019-03-24T08:31:04.979Z,41.95
2019-03-24T08:32:04.990Z,42.01
2019-03-24T08:33:05.021Z,42.01
2019-03-24T08:34:05.085Z,41.97
2019-03-24T08:35:05.178Z,42.01
2019-03-24T08:36:04.764Z,42
2019-03-24T08:37:04.797Z,41.98
2019-03-24T08:38:04.771Z,42.01
2019-03-24T08:39:04.787Z,41.97
2019-03-24T08:40:04.805Z,41.95
2019-03-24T08:41:04.898Z,41.97
2019-03-24T08:42:04.958Z,41.99
2019-03-24T08:43:04.871Z,42.01
2019-03-24T08:44:04.865Z,42.02
2019-03-24T08:45:05.418Z,42.01
2019-03-24T08:46:05.966Z,42
2019-03-24T08:47:05.086Z,41.96
2019-03-24T08:48:04.938Z,41.97
2019-03-24T08:49:05.035Z,41.99
2019-03-24T08:50:04.952Z,41.97
2019-03-24T08:51:04.979Z,41.97
2019-03-24T08:52:04.829Z,41.95
2019-03-24T08:53:04.905Z,41.96
2019-03-24T08:54:04.784Z,41.97
2019-03-24T08:55:04.825Z,41.95
2019-03-24T08:56:04.892Z,42.01
2019-03-24T08:57:05.002Z,41.97
2019-03-24T08:58:04.874Z,41.95
2019-03-24T08:59:04.869Z,41.93
2019-03-24T09:00:04.920Z,41.93
2019-03-24T09:01:04.912Z,41.93
2019-03-24T09:02:05.030Z,41.92
2019-03-24T09:03:05.040Z,41.95
2019-03-24T09:04:04.946Z,41.96
2019-03-24T09:05:04.964Z,41.96
2019-03-24T09:06:05.074Z,41.91
2019-03-24T09:07:05.280Z,41.93
2019-03-24T09:08:05.109Z,41.93
2019-03-24T09:09:04.855Z,41.93
2019-03-24T09:10:04.798Z,41.95
2019-03-24T09:11:04.814Z,41.97
2019-03-24T09:12:04.762Z,41.93
2019-03-24T09:13:04.868Z,41.9
2019-03-24T09:14:04.800Z,41.93
2019-03-24T09:15:04.807Z,41.92
2019-03-24T09:16:05.128Z,41.92
2019-03-24T09:17:04.961Z,41.92
2019-03-24T09:18:04.943Z,41.95
2019-03-24T09:19:04.896Z,41.91
2019-03-24T09:20:04.894Z,41.93
2019-03-24T09:21:04.915Z,41.9
2019-03-24T09:22:05.060Z,41.88
2019-03-24T09:23:04.974Z,42.11
2019-03-24T09:24:05.014Z,42.12
2019-03-24T09:25:04.978Z,42.17
2019-03-24T09:26:04.769Z,42.1
2019-03-24T09:27:04.821Z,42.15
2019-03-24T09:28:05.021Z,42.14
2019-03-24T09:29:05.205Z,42.08
2019-03-24T09:30:04.855Z,42.07
2019-03-24T09:31:04.847Z,42.11
2019-03-24T09:32:04.940Z,42.2
2019-03-24T09:33:04.950Z,42.17
2019-03-24T09:34:04.856Z,42.26
2019-03-24T09:35:04.897Z,42.18
2019-03-24T09:36:04.985Z,42.31
2019-03-24T09:37:04.919Z,42.32
2019-03-24T09:38:04.922Z,42.41
2019-03-24T09:39:05.034Z,42.44
2019-03-24T09:40:05.105Z,42.33
2019-03-24T09:41:05.082Z,42.32
2019-03-24T09:42:05.024Z,42.41
2019-03-24T09:43:05.111Z,42.34
2019-03-24T09:44:04.702Z,42.38
2019-03-24T09:45:04.747Z,42.37
2019-03-24T09:46:04.746Z,42.34
2019-03-24T09:47:04.735Z,42.37
2019-03-24T09:48:04.794Z,42.35
2019-03-24T09:49:04.885Z,42.35
2019-03-24T09:50:05.119Z,42.47
2019-03-24T09:51:04.866Z,42.47
2019-03-24T09:52:04.858Z,42.7
2019-03-24T09:53:04.906Z,42.74
2019-03-24T09:54:05.076Z,42.84
2019-03-24T09:55:04.962Z,42.69
2019-03-24T09:56:04.986Z,42.69
2019-03-24T09:57:04.972Z,42.95
2019-03-24T09:58:05.099Z,42.91
2019-03-24T09:59:05.040Z,42.92
2019-03-24T10:00:05.087Z,42.98
2019-03-24T10:01:04.769Z,42.91
2019-03-24T10:02:04.793Z,42.83
2019-03-24T10:03:04.816Z,42.86
2019-03-24T10:04:04.867Z,42.91
2019-03-24T10:05:04.820Z,42.76
2019-03-24T10:06:04.837Z,43.34
2019-03-24T10:07:04.903Z,43.25
2019-03-24T10:08:04.870Z,42.81
2019-03-24T10:09:05.024Z,42.89
2019-03-24T10:10:04.884Z,42.86
2019-03-24T10:11:05.765Z,43.03
2019-03-24T10:12:04.918Z,43.34
2019-03-24T10:13:05.035Z,43.54
2019-03-24T10:14:05.031Z,43.42
2019-03-24T10:15:04.955Z,43.54
2019-03-24T10:16:04.939Z,43.55
2019-03-24T10:17:05.072Z,43.29
2019-03-24T10:18:04.696Z,43.64
2019-03-24T10:19:14.758Z,43.23
2019-03-24T10:20:04.747Z,43.27
2019-03-24T10:21:04.903Z,43.52
2019-03-24T10:22:04.892Z,43.12
2019-03-24T10:23:04.774Z,43.31
2019-03-24T10:24:04.827Z,43.29
2019-03-24T10:25:04.790Z,43.28
2019-03-24T10:26:04.912Z,43.39
2019-03-24T10:27:04.836Z,43.33
2019-03-24T10:28:04.880Z,43.26
2019-03-24T10:29:04.883Z,43.22
2019-03-24T10:30:04.896Z,43.22
2019-03-24T10:31:04.879Z,43.18
2019-03-24T10:32:04.906Z,43.21
2019-03-24T10:33:05.095Z,43.38
2019-03-24T10:34:05.031Z,43.07
2019-03-24T10:35:04.760Z,43.04
2019-03-24T10:36:04.847Z,43.14
2019-03-24T10:37:04.790Z,43.19
2019-03-24T10:38:04.849Z,43.36
2019-03-24T10:39:04.853Z,42.92
2019-03-24T10:40:04.958Z,42.57
2019-03-24T10:41:04.958Z,42.83
2019-03-24T10:42:04.944Z,42.91
2019-03-24T10:43:04.844Z,43.01
2019-03-24T10:44:04.872Z,43.05
2019-03-24T10:45:04.998Z,43.07
2019-03-24T10:46:05.026Z,43.06
2019-03-24T10:47:04.960Z,43.03
2019-03-24T10:48:04.934Z,42.99
2019-03-24T10:49:04.927Z,42.99
2019-03-24T10:50:05.329Z,42.98
2019-03-24T10:51:04.978Z,42.91
2019-03-24T10:52:04.853Z,42.9
2019-03-24T10:53:06.269Z,42.92
2019-03-24T10:54:05.068Z,43
2019-03-24T10:55:04.842Z,42.98
2019-03-24T10:56:04.747Z,42.94
2019-03-24T10:57:05.697Z,42.89
2019-03-24T10:58:04.782Z,42.95
2019-03-24T10:59:04.774Z,42.84
2019-03-24T11:00:04.975Z,42.91
2019-03-24T11:01:04.826Z,42.81
2019-03-24T11:02:04.840Z,42.85
2019-03-24T11:03:04.892Z,42.84
2019-03-24T11:04:04.869Z,42.88
2019-03-24T11:05:05.267Z,42.75
2019-03-24T11:06:05.033Z,43.06
2019-03-24T11:07:04.877Z,42.91
2019-03-24T11:08:05.061Z,42.65
2019-03-24T11:09:04.952Z,42.41
2019-03-24T11:10:05.877Z,42.42
2019-03-24T11:11:04.730Z,42.32
2019-03-24T11:12:04.787Z,42.24
2019-03-24T11:13:04.852Z,42.25
2019-03-24T11:14:04.837Z,42.2
2019-03-24T11:15:05.207Z,42.1
2019-03-24T11:16:04.801Z,42.13
2019-03-24T11:17:04.892Z,42.07
2019-03-24T11:18:04.906Z,42
2019-03-24T11:19:04.868Z,41.98
2019-03-24T11:20:04.861Z,41.97
2019-03-24T11:21:04.853Z,41.97
2019-03-24T11:22:04.943Z,41.95
2019-03-24T11:23:04.982Z,41.9
2019-03-24T11:24:04.896Z,41.99
2019-03-24T11:25:04.937Z,41.93
2019-03-24T11:26:05.012Z,41.96
2019-03-24T11:27:04.981Z,41.95
2019-03-24T11:28:04.984Z,41.96
2019-03-24T11:29:04.827Z,41.97
2019-03-24T11:30:04.763Z,41.92
2019-03-24T11:31:04.736Z,42.01
2019-03-24T11:32:04.737Z,41.94
2019-03-24T11:33:04.729Z,41.92
2019-03-24T11:34:04.810Z,41.93
2019-03-24T11:35:04.882Z,41.91
2019-03-24T11:36:04.763Z,41.92
2019-03-24T11:37:04.993Z,41.92
2019-03-24T11:38:04.768Z,41.94
2019-03-24T11:39:04.829Z,41.86
2019-03-24T11:40:05.095Z,42.03
2019-03-24T11:41:04.877Z,42.1
2019-03-24T11:42:04.907Z,42.13
2019-03-24T11:43:04.872Z,42.14
2019-03-24T11:44:04.878Z,42.22
2019-03-24T11:45:05.067Z,42.02
2019-03-24T11:46:04.917Z,41.88
2019-03-24T11:47:05.010Z,41.91
2019-03-24T11:48:04.792Z,41.8
2019-03-24T11:49:04.733Z,41.82
2019-03-24T11:50:04.831Z,41.81
2019-03-24T11:51:04.742Z,41.78
2019-03-24T11:52:04.763Z,41.8
2019-03-24T11:53:04.880Z,41.75
2019-03-24T11:54:04.801Z,41.78
2019-03-24T11:55:04.811Z,41.72
2019-03-24T11:56:04.880Z,41.7
2019-03-24T11:57:04.830Z,41.68
2019-03-24T11:58:06.718Z,41.73
2019-03-24T11:59:04.831Z,41.7
2019-03-24T12:00:04.899Z,41.73
2019-03-24T12:01:04.977Z,41.72
2019-03-24T12:02:04.993Z,41.72
2019-03-24T12:03:04.912Z,41.66
2019-03-24T12:04:05.027Z,41.74
2019-03-24T12:05:04.926Z,41.71
2019-03-24T12:06:15.304Z,41.71
2019-03-24T12:07:04.709Z,41.68
2019-03-24T12:08:04.874Z,41.72
2019-03-24T12:09:04.722Z,41.72
2019-03-24T12:10:04.749Z,41.66
2019-03-24T12:11:04.861Z,41.7
2019-03-24T12:12:04.768Z,41.71
2019-03-24T12:13:04.757Z,41.7
2019-03-24T12:14:04.945Z,41.7
2019-03-24T12:15:05.851Z,41.68
2019-03-24T12:16:04.785Z,41.68
2019-03-24T12:17:04.804Z,41.72
2019-03-24T12:18:04.855Z,41.68
2019-03-24T12:19:04.876Z,41.72
2019-03-24T12:20:05.866Z,41.71
2019-03-24T12:21:05.152Z,41.7
2019-03-24T12:22:04.897Z,41.67
2019-03-24T12:23:04.959Z,41.72
2019-03-24T12:24:04.757Z,41.67
2019-03-24T12:25:04.718Z,41.68
2019-03-24T12:26:04.791Z,41.67
2019-03-24T12:27:04.818Z,41.63
2019-03-24T12:28:04.830Z,41.66
2019-03-24T12:29:04.820Z,41.71
2019-03-24T12:30:04.738Z,41.63
2019-03-24T12:31:04.766Z,41.68
2019-03-24T12:32:04.833Z,41.64
2019-03-24T12:33:04.868Z,41.64
2019-03-24T12:34:04.819Z,41.64
2019-03-24T12:35:04.893Z,41.68
2019-03-24T12:36:04.851Z,41.65
2019-03-24T12:37:04.864Z,41.66
2019-03-24T12:38:05.204Z,41.63
2019-03-24T12:39:04.902Z,41.66
2019-03-24T12:40:04.914Z,41.68
2019-03-24T12:41:04.884Z,41.64
2019-03-24T12:42:04.947Z,41.62
2019-03-24T12:43:04.719Z,41.64
2019-03-24T12:44:04.713Z,41.63
2019-03-24T12:45:04.699Z,41.59
2019-03-24T12:46:04.864Z,41.79
2019-03-24T12:47:04.926Z,41.85
2019-03-24T12:48:04.800Z,41.9
2019-03-24T12:49:04.792Z,41.91
2019-03-24T12:50:10.707Z,41.9
2019-03-24T12:51:04.801Z,41.87
2019-03-24T12:52:04.790Z,41.81
2019-03-24T12:53:04.902Z,41.85
2019-03-24T12:54:04.938Z,41.82
2019-03-24T12:55:04.929Z,41.81
2019-03-24T12:56:05.010Z,41.93
2019-03-24T12:57:04.911Z,41.71